createdAt,value
2019-05-21T00:01:03.268Z,88.40
2019-05-21T00:06:08.378Z,87.20
2019-05-21T00:11:13.418Z,89.40
2019-05-21T00:16:18.466Z,87.60
2019-05-21T00:21:23.503Z,86.40
2019-05-21T00:26:28.523Z,87.80
2019-05-21T00:32:10.031Z,88.80
2019-05-21T00:37:51.748Z,88.60
2019-05-21T00:42:58.032Z,91.50
2019-05-21T00:48:05.758Z,89.70
2019-05-21T00:53:09.824Z,89.90
2019-05-21T00:58:14.870Z,88.10
2019-05-21T01:03:19.928Z,90.60
2019-05-21T01:08:24.980Z,90.30
2019-05-21T01:13:30.028Z,88.70
2019-05-21T01:18:34.996Z,88.70
2019-05-21T01:23:40.051Z,88.10
2019-05-21T01:28:45.103Z,88.50
2019-05-21T01:33:50.136Z,88.60
2019-05-21T01:38:55.224Z,90.00
2019-05-21T01:44:00.235Z,88.30
2019-05-21T01:49:05.353Z,88.40
2019-05-21T01:54:10.404Z,88.00
2019-05-21T01:59:15.460Z,89.70
2019-05-21T02:04:20.511Z,90.00
2019-05-21T02:09:25.639Z,90.50
2019-05-21T02:14:30.604Z,89.00
2019-05-21T02:19:35.575Z,90.60
2019-05-21T02:24:40.547Z,92.50
2019-05-21T02:29:45.546Z,88.50
2019-05-21T02:34:50.520Z,90.00
2019-05-21T02:39:55.462Z,89.80
2019-05-21T02:45:00.571Z,87.90
2019-05-21T02:50:06.626Z,87.90
2019-05-21T02:55:11.728Z,93.50
2019-05-21T03:00:38.810Z,90.00
2019-05-21T03:05:44.264Z,90.00
2019-05-21T03:10:49.712Z,88.80
2019-05-21T03:15:54.755Z,89.20
2019-05-21T03:20:59.828Z,90.70
2019-05-21T03:26:04.926Z,91.60
2019-05-21T03:31:09.919Z,88.50
2019-05-21T03:36:31.603Z,87.60
2019-05-21T03:41:21.549Z,89.90
2019-05-21T03:46:26.836Z,92.00
2019-05-21T03:51:31.952Z,96.50
2019-05-21T03:56:37.070Z,95.00
2019-05-21T04:01:42.296Z,93.90
2019-05-21T04:06:51.767Z,92.10
2019-05-21T04:11:55.047Z,94.70
2019-05-21T04:17:02.199Z,91.80
2019-05-21T04:22:10.253Z,91.20
2019-05-21T04:27:15.488Z,87.80
2019-05-21T04:32:20.467Z,87.30
2019-05-21T04:37:25.452Z,91.00
2019-05-21T04:42:30.504Z,95.50
2019-05-21T04:47:35.658Z,97.20
2019-05-21T04:52:40.786Z,98.00
2019-05-21T04:57:45.843Z,98.00
2019-05-21T05:02:51.915Z,98.40
2019-05-21T05:07:56.871Z,97.50
2019-05-21T05:13:01.946Z,97.90
2019-05-21T05:18:07.004Z,97.30
2019-05-21T05:23:12.095Z,96.00
2019-05-21T05:28:17.086Z,95.60
2019-05-21T05:33:22.219Z,96.50
2019-05-21T05:38:27.256Z,96.20
2019-05-21T05:43:32.251Z,95.10
2019-05-21T05:48:39.029Z,94.90
2019-05-21T05:53:59.147Z,95.40
2019-05-21T05:59:04.456Z,93.80
2019-05-21T06:04:09.431Z,94.10
2019-05-21T06:09:14.416Z,94.00
2019-05-21T06:14:19.540Z,91.40
2019-05-21T06:19:24.661Z,90.60
2019-05-21T06:24:29.717Z,87.30
2019-05-21T06:29:38.944Z,84.30
2019-05-21T06:34:41.471Z,85.70
2019-05-21T06:39:46.557Z,86.40
2019-05-21T06:44:51.523Z,82.60
2019-05-21T06:49:56.646Z,82.70
2019-05-21T06:55:01.738Z,76.70
2019-05-21T07:00:08.688Z,72.30
2019-05-21T07:05:14.176Z,69.70
2019-05-21T07:10:19.348Z,74.30
2019-05-21T07:15:25.127Z,74.80
2019-05-21T07:20:30.283Z,72.40
2019-05-21T07:25:35.395Z,66.60
2019-05-21T07:30:40.417Z,67.30
2019-05-21T07:35:45.423Z,70.20
2019-05-21T07:40:50.549Z,67.60
2019-05-21T07:45:55.555Z,66.30
2019-05-21T07:51:00.760Z,70.10
2019-05-21T07:56:05.838Z,64.80
2019-05-21T08:01:11.026Z,67.60
2019-05-21T08:06:16.072Z,60.60
2019-05-21T08:11:21.172Z,61.10
2019-05-21T08:16:26.285Z,61.20
2019-05-21T08:21:31.365Z,63.10
2019-05-21T08:26:36.531Z,57.00
2019-05-21T08:31:42.685Z,58.00
2019-05-21T08:36:47.771Z,54.60
2019-05-21T08:41:57.147Z,54.70
2019-05-21T08:47:02.260Z,55.70
2019-05-21T08:52:07.459Z,55.50
2019-05-21T08:57:12.627Z,54.10
2019-05-21T09:02:20.756Z,53.10
2019-05-21T09:07:25.882Z,53.60
2019-05-21T09:12:30.991Z,51.60
2019-05-21T09:17:36.936Z,52.90
2019-05-21T09:22:42.263Z,51.40
2019-05-21T09:27:47.385Z,51.40
2019-05-21T09:32:52.411Z,52.30
2019-05-21T09:37:57.459Z,55.10
2019-05-21T09:43:02.500Z,54.80
2019-05-21T09:48:07.683Z,56.00
2019-05-21T09:53:12.808Z,57.80
2019-05-21T09:58:19.497Z,58.40
2019-05-21T10:03:26.192Z,55.60
2019-05-21T10:08:31.208Z,56.70
2019-05-21T10:13:36.251Z,56.70
2019-05-21T10:18:41.407Z,50.90
2019-05-21T10:23:46.583Z,53.00
2019-05-21T10:28:51.664Z,50.60
2019-05-21T10:33:56.676Z,52.90
2019-05-21T10:39:01.867Z,53.40
2019-05-21T10:44:08.910Z,54.30
2019-05-21T10:49:14.024Z,53.50
2019-05-21T10:54:19.176Z,50.10
2019-05-21T10:59:24.407Z,49.30
2019-05-21T11:04:46.041Z,51.90
2019-05-21T11:09:51.121Z,54.20
2019-05-21T11:14:56.215Z,54.70
2019-05-21T11:20:01.329Z,54.40
2019-05-21T11:25:07.513Z,53.80
2019-05-21T11:30:12.632Z,50.40
2019-05-21T11:35:17.931Z,55.60
2019-05-21T11:40:24.117Z,55.20
2019-05-21T11:45:32.698Z,52.20
2019-05-21T11:50:36.169Z,54.40
2019-05-21T11:55:41.258Z,55.50
2019-05-21T12:00:46.271Z,55.10
2019-05-21T12:05:51.407Z,54.90
2019-05-21T12:10:56.471Z,49.20
2019-05-21T12:16:01.662Z,53.60
2019-05-21T12:21:06.856Z,48.90
2019-05-21T12:26:12.042Z,46.80
2019-05-21T12:31:17.155Z,51.00
2019-05-21T12:36:22.274Z,48.00
2019-05-21T12:41:27.686Z,49.40
2019-05-21T12:46:32.740Z,50.00
2019-05-21T12:51:37.765Z,47.90
2019-05-21T12:56:42.909Z,55.00
2019-05-21T13:01:48.054Z,53.80
2019-05-21T13:06:53.232Z,51.30
2019-05-21T13:11:58.379Z,49.80
2019-05-21T13:17:04.486Z,48.90
2019-05-21T13:22:09.602Z,49.70
2019-05-21T13:27:14.589Z,56.30
2019-05-21T13:32:19.645Z,54.20
2019-05-21T13:37:24.857Z,48.50
2019-05-21T13:42:30.000Z,49.30
2019-05-21T13:47:35.091Z,50.90
2019-05-21T13:52:40.297Z,50.60
2019-05-21T13:57:45.367Z,52.20
2019-05-21T14:02:51.703Z,49.20
2019-05-21T14:07:56.915Z,47.50
2019-05-21T14:13:02.357Z,50.00
2019-05-21T14:18:07.556Z,52.20
2019-05-21T14:23:12.600Z,46.30
2019-05-21T14:28:17.727Z,47.50
2019-05-21T14:33:22.844Z,48.30
2019-05-21T14:38:27.971Z,53.60
2019-05-21T14:43:33.096Z,44.20
2019-05-21T14:48:38.045Z,43.90
2019-05-21T14:53:43.054Z,52.00
2019-05-21T14:58:48.130Z,48.40
2019-05-21T15:03:53.162Z,53.00
2019-05-21T15:08:58.176Z,48.10
2019-05-21T15:14:03.308Z,52.20
2019-05-21T15:19:08.499Z,51.90
2019-05-21T15:24:14.207Z,53.60
2019-05-21T15:29:19.270Z,53.20
2019-05-21T15:34:24.217Z,51.50
2019-05-21T15:39:29.260Z,56.20
2019-05-21T15:44:34.299Z,62.50
2019-05-21T15:49:39.302Z,57.70
2019-05-21T15:54:45.195Z,55.60
2019-05-21T15:59:50.255Z,55.60
2019-05-21T16:04:55.251Z,58.10
2019-05-21T16:10:01.307Z,56.60
2019-05-21T16:15:07.475Z,57.60
2019-05-21T16:20:13.067Z,61.40
2019-05-21T16:25:18.348Z,64.40
2019-05-21T16:30:23.575Z,60.50
2019-05-21T16:35:29.139Z,61.40
2019-05-21T16:40:34.307Z,61.30
2019-05-21T16:45:40.663Z,62.80
2019-05-21T16:50:45.640Z,63.80
2019-05-21T16:55:50.678Z,67.10
2019-05-21T17:00:55.732Z,66.70
2019-05-21T17:06:00.963Z,63.40
2019-05-21T17:11:06.162Z,64.70
2019-05-21T17:16:11.276Z,64.20
2019-05-21T17:21:16.393Z,64.50
2019-05-21T17:26:21.432Z,66.60
2019-05-21T17:31:26.521Z,66.40
2019-05-21T17:36:31.544Z,72.50
2019-05-21T17:41:36.739Z,69.60
2019-05-21T17:46:41.796Z,71.40
2019-05-21T17:51:47.050Z,74.00
2019-05-21T17:56:52.158Z,75.10
2019-05-21T18:01:57.510Z,76.50
2019-05-21T18:07:03.332Z,78.50
2019-05-21T18:12:10.740Z,76.90
2019-05-21T18:17:18.433Z,81.90
2019-05-21T18:22:24.723Z,82.50
2019-05-21T18:27:30.460Z,83.60
2019-05-21T18:32:35.545Z,84.30
2019-05-21T18:37:40.778Z,85.30
2019-05-21T18:42:45.968Z,88.80
2019-05-21T18:47:51.059Z,90.00
2019-05-21T18:52:56.215Z,92.00
2019-05-21T18:58:01.299Z,92.40
2019-05-21T19:03:06.546Z,92.10
2019-05-21T19:08:11.734Z,92.50
2019-05-21T19:13:16.995Z,93.00
2019-05-21T19:18:22.017Z,93.40
2019-05-21T19:23:27.040Z,93.70
2019-05-21T19:28:32.095Z,93.60
2019-05-21T19:33:37.180Z,94.40
2019-05-21T19:38:42.243Z,92.20
2019-05-21T19:43:47.351Z,91.70
2019-05-21T19:48:52.315Z,94.90
2019-05-21T19:53:57.510Z,94.60
2019-05-21T19:59:02.639Z,94.70
2019-05-21T20:04:09.815Z,93.60
2019-05-21T20:09:19.685Z,94.50
2019-05-21T20:14:24.872Z,95.10
2019-05-21T20:19:31.269Z,95.90
2019-05-21T20:24:36.403Z,95.40
2019-05-21T20:29:41.773Z,96.10
2019-05-21T20:34:46.885Z,92.50
2019-05-21T20:39:52.545Z,91.00
2019-05-21T20:44:57.721Z,91.90
2019-05-21T20:50:04.444Z,96.50
2019-05-21T20:55:10.273Z,92.90
2019-05-21T21:00:23.379Z,95.60
2019-05-21T21:05:28.706Z,91.50
2019-05-21T21:10:33.811Z,91.80
2019-05-21T21:15:39.257Z,97.00
2019-05-21T21:20:44.429Z,97.70
2019-05-21T21:25:49.531Z,94.80
2019-05-21T21:30:56.163Z,87.40
2019-05-21T21:36:01.258Z,92.70
2019-05-21T21:41:07.516Z,94.20
2019-05-21T21:46:12.600Z,95.20
2019-05-21T21:51:18.585Z,89.80
2019-05-21T21:56:23.629Z,89.80
2019-05-21T22:01:36.118Z,89.80
2019-05-21T22:06:42.855Z,92.80
2019-05-21T22:11:48.148Z,97.90
2019-05-21T22:16:53.773Z,95.00
2019-05-21T22:21:58.824Z,99.00
2019-05-21T22:27:04.001Z,99.90
2019-05-21T22:32:09.156Z,99.90
2019-05-21T22:37:16.527Z,99.90
2019-05-21T22:42:22.684Z,99.90
2019-05-21T22:47:28.079Z,97.70
2019-05-21T22:52:33.135Z,94.10
2019-05-21T22:57:38.153Z,93.20
2019-05-21T23:02:43.543Z,91.00
2019-05-21T23:07:48.459Z,91.40
2019-05-21T23:12:53.675Z,89.60
2019-05-21T23:17:58.866Z,92.00
2019-05-21T23:23:06.168Z,90.10
2019-05-21T23:28:11.255Z,93.10
2019-05-21T23:33:17.851Z,96.10
2019-05-21T23:38:23.578Z,98.30
2019-05-21T23:43:29.512Z,99.90
2019-05-21T23:48:35.513Z,99.90
2019-05-21T23:53:40.713Z,99.90
2019-05-21T23:58:48.031Z,99.90
